sensor_id;sensor_type;location;lat;lon;timestamp;P1;durP1;ratioP1;P2;durP2;ratioP2
21334;SDS011;69435;52.670;13.544;2023-05-16T00:01:21;20.97;;;16.30;;
21334;SDS011;69435;52.670;13.544;2023-05-16T00:04:07;18.10;;;15.73;;
21334;SDS011;69435;52.670;13.544;2023-05-16T00:06:53;25.77;;;16.77;;
21334;SDS011;69435;52.670;13.544;2023-05-16T00:09:39;21.63;;;16.90;;
21334;SDS011;69435;52.670;13.544;2023-05-16T00:12:25;22.57;;;16.53;;
21334;SDS011;69435;52.670;13.544;2023-05-16T00:15:12;20.10;;;17.60;;
21334;SDS011;69435;52.670;13.544;2023-05-16T00:17:58;19.97;;;16.27;;
21334;SDS011;69435;52.670;13.544;2023-05-16T00:20:44;19.80;;;15.40;;
21334;SDS011;69435;52.670;13.544;2023-05-16T00:23:31;19.53;;;16.40;;
21334;SDS011;69435;52.670;13.544;2023-05-16T00:26:17;21.67;;;16.00;;
21334;SDS011;69435;52.670;13.544;2023-05-16T00:29:04;18.67;;;16.73;;
21334;SDS011;69435;52.670;13.544;2023-05-16T00:31:52;20.17;;;15.93;;
21334;SDS011;69435;52.670;13.544;2023-05-16T00:34:38;17.73;;;15.50;;
21334;SDS011;69435;52.670;13.544;2023-05-16T00:37:24;17.63;;;15.80;;
21334;SDS011;69435;52.670;13.544;2023-05-16T00:40:10;18.67;;;16.63;;
21334;SDS011;69435;52.670;13.544;2023-05-16T00:42:56;18.57;;;16.30;;
21334;SDS011;69435;52.670;13.544;2023-05-16T00:45:44;17.67;;;15.20;;
21334;SDS011;69435;52.670;13.544;2023-05-16T00:48:30;18.50;;;16.20;;
21334;SDS011;69435;52.670;13.544;2023-05-16T00:51:18;17.87;;;16.07;;
21334;SDS011;69435;52.670;13.544;2023-05-16T00:54:05;19.10;;;15.37;;
21334;SDS011;69435;52.670;13.544;2023-05-16T00:56:51;16.93;;;15.33;;
21334;SDS011;69435;52.670;13.544;2023-05-16T00:59:38;17.77;;;15.70;;
21334;SDS011;69435;52.670;13.544;2023-05-16T01:02:25;17.47;;;15.33;;
21334;SDS011;69435;52.670;13.544;2023-05-16T01:05:13;17.33;;;14.87;;
21334;SDS011;69435;52.670;13.544;2023-05-16T01:07:59;20.03;;;15.47;;
21334;SDS011;69435;52.670;13.544;2023-05-16T01:14:11;16.53;;;13.60;;
21334;SDS011;69435;52.670;13.544;2023-05-16T01:24:08;17.37;;;15.63;;
21334;SDS011;69435;52.670;13.544;2023-05-16T01:27:22;21.77;;;15.53;;
21334;SDS011;69435;52.670;13.544;2023-05-16T01:30:13;18.50;;;16.10;;
21334;SDS011;69435;52.670;13.544;2023-05-16T01:33:02;17.87;;;15.97;;
21334;SDS011;69435;52.670;13.544;2023-05-16T01:38:51;16.70;;;15.07;;
21334;SDS011;69435;52.670;13.544;2023-05-16T01:42:07;26.67;;;17.20;;
21334;SDS011;69435;52.670;13.544;2023-05-16T01:45:09;18.80;;;16.87;;
21334;SDS011;69435;52.670;13.544;2023-05-16T01:50:57;24.10;;;20.07;;
21334;SDS011;69435;52.670;13.544;2023-05-16T01:53:46;22.00;;;18.87;;
21334;SDS011;69435;52.670;13.544;2023-05-16T01:56:36;24.77;;;20.23;;
21334;SDS011;69435;52.670;13.544;2023-05-16T01:59:23;26.73;;;19.60;;
21334;SDS011;69435;52.670;13.544;2023-05-16T02:02:10;29.17;;;20.87;;
21334;SDS011;69435;52.670;13.544;2023-05-16T02:04:56;24.07;;;21.07;;
21334;SDS011;69435;52.670;13.544;2023-05-16T02:07:42;28.90;;;21.30;;
21334;SDS011;69435;52.670;13.544;2023-05-16T02:10:28;34.47;;;21.67;;
21334;SDS011;69435;52.670;13.544;2023-05-16T02:13:14;23.53;;;20.60;;
21334;SDS011;69435;52.670;13.544;2023-05-16T02:16:00;31.20;;;22.00;;
21334;SDS011;69435;52.670;13.544;2023-05-16T02:18:46;34.10;;;20.60;;
21334;SDS011;69435;52.670;13.544;2023-05-16T02:21:32;24.60;;;19.80;;
21334;SDS011;69435;52.670;13.544;2023-05-16T02:24:18;24.53;;;19.83;;
21334;SDS011;69435;52.670;13.544;2023-05-16T02:27:05;31.07;;;20.97;;
21334;SDS011;69435;52.670;13.544;2023-05-16T02:29:50;25.83;;;20.03;;
21334;SDS011;69435;52.670;13.544;2023-05-16T02:32:37;26.17;;;18.93;;
21334;SDS011;69435;52.670;13.544;2023-05-16T02:35:24;23.20;;;19.40;;
21334;SDS011;69435;52.670;13.544;2023-05-16T02:38:10;25.23;;;19.90;;
21334;SDS011;69435;52.670;13.544;2023-05-16T02:41:01;28.23;;;19.40;;
21334;SDS011;69435;52.670;13.544;2023-05-16T02:43:47;29.57;;;19.40;;
21334;SDS011;69435;52.670;13.544;2023-05-16T02:46:33;22.13;;;17.63;;
21334;SDS011;69435;52.670;13.544;2023-05-16T02:49:20;25.03;;;18.40;;
21334;SDS011;69435;52.670;13.544;2023-05-16T02:52:05;25.03;;;18.83;;
21334;SDS011;69435;52.670;13.544;2023-05-16T02:54:52;26.03;;;16.87;;
21334;SDS011;69435;52.670;13.544;2023-05-16T02:57:38;24.27;;;17.47;;
21334;SDS011;69435;52.670;13.544;2023-05-16T03:00:24;25.23;;;18.77;;
21334;SDS011;69435;52.670;13.544;2023-05-16T03:03:10;24.47;;;18.80;;
21334;SDS011;69435;52.670;13.544;2023-05-16T03:05:56;28.67;;;18.37;;
21334;SDS011;69435;52.670;13.544;2023-05-16T03:08:42;21.97;;;17.03;;
21334;SDS011;69435;52.670;13.544;2023-05-16T03:11:28;27.53;;;19.57;;
21334;SDS011;69435;52.670;13.544;2023-05-16T03:14:14;21.73;;;17.83;;
21334;SDS011;69435;52.670;13.544;2023-05-16T03:17:00;21.63;;;18.00;;
21334;SDS011;69435;52.670;13.544;2023-05-16T03:19:46;21.60;;;17.07;;
21334;SDS011;69435;52.670;13.544;2023-05-16T03:22:32;22.73;;;18.00;;
21334;SDS011;69435;52.670;13.544;2023-05-16T03:25:18;21.30;;;18.33;;
21334;SDS011;69435;52.670;13.544;2023-05-16T03:28:04;24.07;;;17.50;;
21334;SDS011;69435;52.670;13.544;2023-05-16T03:30:54;20.73;;;16.57;;
21334;SDS011;69435;52.670;13.544;2023-05-16T03:33:40;21.17;;;17.77;;
21334;SDS011;69435;52.670;13.544;2023-05-16T03:36:26;24.33;;;18.10;;
21334;SDS011;69435;52.670;13.544;2023-05-16T03:39:13;20.67;;;17.23;;
21334;SDS011;69435;52.670;13.544;2023-05-16T03:41:59;23.40;;;18.03;;
21334;SDS011;69435;52.670;13.544;2023-05-16T03:44:45;24.93;;;18.53;;
21334;SDS011;69435;52.670;13.544;2023-05-16T03:47:31;24.07;;;18.57;;
21334;SDS011;69435;52.670;13.544;2023-05-16T03:50:17;25.00;;;19.13;;
21334;SDS011;69435;52.670;13.544;2023-05-16T03:53:03;25.83;;;20.50;;
21334;SDS011;69435;52.670;13.544;2023-05-16T03:55:49;32.33;;;19.23;;
21334;SDS011;69435;52.670;13.544;2023-05-16T03:58:36;24.90;;;18.43;;
21334;SDS011;69435;52.670;13.544;2023-05-16T04:01:23;28.33;;;20.20;;
21334;SDS011;69435;52.670;13.544;2023-05-16T04:04:09;23.27;;;17.93;;
21334;SDS011;69435;52.670;13.544;2023-05-16T04:06:54;24.83;;;19.60;;
21334;SDS011;69435;52.670;13.544;2023-05-16T04:09:41;25.40;;;18.77;;
21334;SDS011;69435;52.670;13.544;2023-05-16T04:12:27;26.27;;;19.83;;
21334;SDS011;69435;52.670;13.544;2023-05-16T04:15:13;28.03;;;20.50;;
21334;SDS011;69435;52.670;13.544;2023-05-16T04:17:59;26.27;;;20.37;;
21334;SDS011;69435;52.670;13.544;2023-05-16T04:20:45;26.37;;;21.23;;
21334;SDS011;69435;52.670;13.544;2023-05-16T04:23:33;29.23;;;19.27;;
21334;SDS011;69435;52.670;13.544;2023-05-16T04:26:18;26.20;;;21.20;;
21334;SDS011;69435;52.670;13.544;2023-05-16T04:29:08;31.90;;;20.07;;
21334;SDS011;69435;52.670;13.544;2023-05-16T04:31:54;25.70;;;20.90;;
21334;SDS011;69435;52.670;13.544;2023-05-16T04:34:40;28.23;;;20.83;;
21334;SDS011;69435;52.670;13.544;2023-05-16T04:37:28;30.57;;;21.37;;
21334;SDS011;69435;52.670;13.544;2023-05-16T04:40:14;26.03;;;20.93;;
21334;SDS011;69435;52.670;13.544;2023-05-16T04:43:01;26.67;;;19.63;;
21334;SDS011;69435;52.670;13.544;2023-05-16T04:45:47;33.43;;;21.40;;
21334;SDS011;69435;52.670;13.544;2023-05-16T04:48:33;28.33;;;20.03;;
21334;SDS011;69435;52.670;13.544;2023-05-16T04:51:19;27.60;;;19.53;;
21334;SDS011;69435;52.670;13.544;2023-05-16T04:54:06;24.00;;;18.20;;
21334;SDS011;69435;52.670;13.544;2023-05-16T04:56:53;24.63;;;18.63;;
21334;SDS011;69435;52.670;13.544;2023-05-16T04:59:39;26.60;;;19.90;;
21334;SDS011;69435;52.670;13.544;2023-05-16T05:02:25;26.07;;;19.57;;
21334;SDS011;69435;52.670;13.544;2023-05-16T05:05:11;23.20;;;18.27;;
21334;SDS011;69435;52.670;13.544;2023-05-16T05:07:57;24.30;;;18.37;;
21334;SDS011;69435;52.670;13.544;2023-05-16T05:10:44;25.83;;;18.07;;
21334;SDS011;69435;52.670;13.544;2023-05-16T05:13:30;23.40;;;18.07;;
21334;SDS011;69435;52.670;13.544;2023-05-16T05:16:16;24.63;;;17.83;;
21334;SDS011;69435;52.670;13.544;2023-05-16T05:19:02;22.87;;;18.17;;
21334;SDS011;69435;52.670;13.544;2023-05-16T05:21:48;24.53;;;17.17;;
21334;SDS011;69435;52.670;13.544;2023-05-16T05:24:34;25.80;;;16.73;;
21334;SDS011;69435;52.670;13.544;2023-05-16T05:27:21;19.97;;;16.80;;
21334;SDS011;69435;52.670;13.544;2023-05-16T05:30:07;22.73;;;17.40;;
21334;SDS011;69435;52.670;13.544;2023-05-16T05:32:53;25.17;;;16.53;;
21334;SDS011;69435;52.670;13.544;2023-05-16T05:35:39;22.07;;;16.03;;
21334;SDS011;69435;52.670;13.544;2023-05-16T05:38:25;22.80;;;15.53;;
21334;SDS011;69435;52.670;13.544;2023-05-16T05:41:11;18.23;;;16.00;;
21334;SDS011;69435;52.670;13.544;2023-05-16T05:43:58;19.97;;;16.40;;
21334;SDS011;69435;52.670;13.544;2023-05-16T05:46:44;29.60;;;17.43;;
21334;SDS011;69435;52.670;13.544;2023-05-16T05:49:30;19.63;;;14.77;;
21334;SDS011;69435;52.670;13.544;2023-05-16T05:52:17;16.97;;;13.53;;
21334;SDS011;69435;52.670;13.544;2023-05-16T05:55:03;20.33;;;13.67;;
21334;SDS011;69435;52.670;13.544;2023-05-16T05:57:50;17.40;;;13.83;;
21334;SDS011;69435;52.670;13.544;2023-05-16T06:00:35;15.03;;;13.53;;
21334;SDS011;69435;52.670;13.544;2023-05-16T06:03:21;16.13;;;12.70;;
21334;SDS011;69435;52.670;13.544;2023-05-16T06:06:08;13.90;;;12.63;;
21334;SDS011;69435;52.670;13.544;2023-05-16T06:08:54;15.70;;;13.20;;
21334;SDS011;69435;52.670;13.544;2023-05-16T06:11:40;14.17;;;12.03;;
21334;SDS011;69435;52.670;13.544;2023-05-16T06:14:27;16.00;;;12.93;;
21334;SDS011;69435;52.670;13.544;2023-05-16T06:17:13;16.13;;;13.23;;
21334;SDS011;69435;52.670;13.544;2023-05-16T06:19:59;16.70;;;13.33;;
21334;SDS011;69435;52.670;13.544;2023-05-16T06:22:46;13.97;;;12.33;;
21334;SDS011;69435;52.670;13.544;2023-05-16T06:25:32;14.53;;;12.63;;
21334;SDS011;69435;52.670;13.544;2023-05-16T06:28:18;15.93;;;12.40;;
21334;SDS011;69435;52.670;13.544;2023-05-16T06:31:04;14.10;;;10.83;;
21334;SDS011;69435;52.670;13.544;2023-05-16T06:33:50;13.77;;;11.40;;
21334;SDS011;69435;52.670;13.544;2023-05-16T06:36:36;22.73;;;11.83;;
21334;SDS011;69435;52.670;13.544;2023-05-16T06:39:22;11.93;;;10.40;;
21334;SDS011;69435;52.670;13.544;2023-05-16T06:42:08;11.93;;;10.73;;
21334;SDS011;69435;52.670;13.544;2023-05-16T06:44:55;11.57;;;10.17;;
21334;SDS011;69435;52.670;13.544;2023-05-16T06:47:41;11.37;;;10.27;;
21334;SDS011;69435;52.670;13.544;2023-05-16T06:50:27;11.13;;;9.67;;
21334;SDS011;69435;52.670;13.544;2023-05-16T06:53:13;12.50;;;10.30;;
21334;SDS011;69435;52.670;13.544;2023-05-16T06:55:59;12.10;;;10.17;;
21334;SDS011;69435;52.670;13.544;2023-05-16T06:58:45;13.10;;;9.53;;
21334;SDS011;69435;52.670;13.544;2023-05-16T07:01:32;12.27;;;9.20;;
21334;SDS011;69435;52.670;13.544;2023-05-16T07:04:18;11.30;;;9.17;;
21334;SDS011;69435;52.670;13.544;2023-05-16T07:07:06;12.40;;;9.03;;
21334;SDS011;69435;52.670;13.544;2023-05-16T07:09:53;9.10;;;8.30;;
21334;SDS011;69435;52.670;13.544;2023-05-16T07:12:40;9.73;;;8.40;;
21334;SDS011;69435;52.670;13.544;2023-05-16T07:15:27;12.00;;;9.13;;
21334;SDS011;69435;52.670;13.544;2023-05-16T07:18:13;10.13;;;8.00;;
21334;SDS011;69435;52.670;13.544;2023-05-16T07:21:00;9.00;;;8.07;;
21334;SDS011;69435;52.670;13.544;2023-05-16T07:23:46;8.77;;;7.87;;
21334;SDS011;69435;52.670;13.544;2023-05-16T07:26:34;10.80;;;8.20;;
21334;SDS011;69435;52.670;13.544;2023-05-16T07:29:20;8.20;;;7.40;;
21334;SDS011;69435;52.670;13.544;2023-05-16T07:32:06;10.43;;;8.13;;
21334;SDS011;69435;52.670;13.544;2023-05-16T07:34:52;10.70;;;7.30;;
21334;SDS011;69435;52.670;13.544;2023-05-16T07:37:38;10.70;;;7.97;;
21334;SDS011;69435;52.670;13.544;2023-05-16T07:40:26;8.87;;;7.97;;
21334;SDS011;69435;52.670;13.544;2023-05-16T07:43:14;10.07;;;7.63;;
21334;SDS011;69435;52.670;13.544;2023-05-16T07:46:01;7.57;;;6.87;;
21334;SDS011;69435;52.670;13.544;2023-05-16T07:48:48;8.70;;;6.77;;
21334;SDS011;69435;52.670;13.544;2023-05-16T07:51:34;7.40;;;6.43;;
21334;SDS011;69435;52.670;13.544;2023-05-16T07:54:20;8.10;;;6.07;;
21334;SDS011;69435;52.670;13.544;2023-05-16T07:57:06;7.67;;;6.60;;
21334;SDS011;69435;52.670;13.544;2023-05-16T07:59:53;7.10;;;6.33;;
21334;SDS011;69435;52.670;13.544;2023-05-16T08:02:40;10.50;;;6.53;;
21334;SDS011;69435;52.670;13.544;2023-05-16T08:05:26;6.20;;;5.63;;
21334;SDS011;69435;52.670;13.544;2023-05-16T08:08:12;8.37;;;5.47;;
21334;SDS011;69435;52.670;13.544;2023-05-16T08:10:59;6.00;;;5.17;;
21334;SDS011;69435;52.670;13.544;2023-05-16T08:13:45;5.23;;;4.80;;
21334;SDS011;69435;52.670;13.544;2023-05-16T08:16:31;6.97;;;5.07;;
21334;SDS011;69435;52.670;13.544;2023-05-16T08:19:17;5.50;;;4.80;;
21334;SDS011;69435;52.670;13.544;2023-05-16T08:22:05;5.03;;;4.50;;
21334;SDS011;69435;52.670;13.544;2023-05-16T08:24:53;4.73;;;4.33;;
21334;SDS011;69435;52.670;13.544;2023-05-16T08:27:43;4.20;;;3.80;;
21334;SDS011;69435;52.670;13.544;2023-05-16T08:30:30;4.70;;;3.97;;
21334;SDS011;69435;52.670;13.544;2023-05-16T08:33:20;4.90;;;4.10;;
21334;SDS011;69435;52.670;13.544;2023-05-16T08:36:06;3.47;;;3.17;;
21334;SDS011;69435;52.670;13.544;2023-05-16T08:38:54;17.57;;;4.00;;
21334;SDS011;69435;52.670;13.544;2023-05-16T08:41:40;3.17;;;2.93;;
21334;SDS011;69435;52.670;13.544;2023-05-16T08:44:27;3.23;;;2.63;;
21334;SDS011;69435;52.670;13.544;2023-05-16T08:47:17;4.17;;;3.03;;
21334;SDS011;69435;52.670;13.544;2023-05-16T08:50:06;2.90;;;2.70;;
21334;SDS011;69435;52.670;13.544;2023-05-16T08:52:54;3.27;;;2.80;;
21334;SDS011;69435;52.670;13.544;2023-05-16T08:55:41;7.40;;;3.67;;
21334;SDS011;69435;52.670;13.544;2023-05-16T08:58:30;3.57;;;3.03;;
21334;SDS011;69435;52.670;13.544;2023-05-16T09:01:16;3.40;;;3.10;;
21334;SDS011;69435;52.670;13.544;2023-05-16T09:04:07;2.90;;;2.70;;
21334;SDS011;69435;52.670;13.544;2023-05-16T09:06:54;6.00;;;2.67;;
21334;SDS011;69435;52.670;13.544;2023-05-16T09:09:40;5.00;;;2.53;;
21334;SDS011;69435;52.670;13.544;2023-05-16T09:12:26;4.63;;;2.20;;
21334;SDS011;69435;52.670;13.544;2023-05-16T09:15:12;4.63;;;2.30;;
21334;SDS011;69435;52.670;13.544;2023-05-16T09:17:59;3.77;;;1.80;;
21334;SDS011;69435;52.670;13.544;2023-05-16T09:20:47;3.87;;;2.00;;
21334;SDS011;69435;52.670;13.544;2023-05-16T09:23:34;2.40;;;2.03;;
21334;SDS011;69435;52.670;13.544;2023-05-16T09:26:20;4.60;;;1.77;;
21334;SDS011;69435;52.670;13.544;2023-05-16T09:29:10;2.40;;;1.80;;
21334;SDS011;69435;52.670;13.544;2023-05-16T09:32:09;2.93;;;1.70;;
21334;SDS011;69435;52.670;13.544;2023-05-16T09:35:00;5.33;;;1.87;;
21334;SDS011;69435;52.670;13.544;2023-05-16T09:37:47;4.57;;;1.97;;
21334;SDS011;69435;52.670;13.544;2023-05-16T09:40:39;4.70;;;2.10;;
21334;SDS011;69435;52.670;13.544;2023-05-16T09:43:26;3.17;;;1.70;;
21334;SDS011;69435;52.670;13.544;2023-05-16T09:46:13;2.70;;;1.90;;
21334;SDS011;69435;52.670;13.544;2023-05-16T09:49:02;5.07;;;2.23;;
21334;SDS011;69435;52.670;13.544;2023-05-16T09:51:48;3.80;;;1.63;;
21334;SDS011;69435;52.670;13.544;2023-05-16T09:54:34;3.23;;;1.50;;
21334;SDS011;69435;52.670;13.544;2023-05-16T09:57:20;4.33;;;2.30;;
21334;SDS011;69435;52.670;13.544;2023-05-16T10:00:10;1.80;;;1.57;;
21334;SDS011;69435;52.670;13.544;2023-05-16T10:02:59;2.53;;;1.40;;
21334;SDS011;69435;52.670;13.544;2023-05-16T10:05:47;2.70;;;1.70;;
21334;SDS011;69435;52.670;13.544;2023-05-16T10:08:37;7.27;;;1.97;;
21334;SDS011;69435;52.670;13.544;2023-05-16T10:11:27;5.03;;;2.10;;
21334;SDS011;69435;52.670;13.544;2023-05-16T10:14:17;7.90;;;2.17;;
21334;SDS011;69435;52.670;13.544;2023-05-16T10:17:06;5.30;;;1.93;;
21334;SDS011;69435;52.670;13.544;2023-05-16T10:19:57;2.80;;;1.90;;
21334;SDS011;69435;52.670;13.544;2023-05-16T10:22:47;4.20;;;1.73;;
21334;SDS011;69435;52.670;13.544;2023-05-16T10:25:39;3.93;;;1.53;;
21334;SDS011;69435;52.670;13.544;2023-05-16T10:28:26;3.47;;;1.70;;
21334;SDS011;69435;52.670;13.544;2023-05-16T10:31:14;4.40;;;1.70;;
21334;SDS011;69435;52.670;13.544;2023-05-16T10:34:00;5.13;;;2.00;;
21334;SDS011;69435;52.670;13.544;2023-05-16T10:36:47;3.17;;;1.33;;
21334;SDS011;69435;52.670;13.544;2023-05-16T10:39:35;5.03;;;2.10;;
21334;SDS011;69435;52.670;13.544;2023-05-16T10:42:24;7.00;;;2.17;;
21334;SDS011;69435;52.670;13.544;2023-05-16T10:45:14;5.33;;;2.00;;
21334;SDS011;69435;52.670;13.544;2023-05-16T10:48:03;3.70;;;1.93;;
21334;SDS011;69435;52.670;13.544;2023-05-16T10:50:54;4.73;;;1.50;;
21334;SDS011;69435;52.670;13.544;2023-05-16T10:53:43;4.57;;;2.20;;
21334;SDS011;69435;52.670;13.544;2023-05-16T10:56:30;3.27;;;1.93;;
21334;SDS011;69435;52.670;13.544;2023-05-16T10:59:21;4.50;;;2.17;;
21334;SDS011;69435;52.670;13.544;2023-05-16T11:02:26;5.23;;;2.10;;
21334;SDS011;69435;52.670;13.544;2023-05-16T11:05:18;2.43;;;2.10;;
21334;SDS011;69435;52.670;13.544;2023-05-16T11:08:04;4.83;;;1.90;;
21334;SDS011;69435;52.670;13.544;2023-05-16T11:11:37;6.10;;;2.20;;
21334;SDS011;69435;52.670;13.544;2023-05-16T11:14:40;5.53;;;2.47;;
21334;SDS011;69435;52.670;13.544;2023-05-16T11:17:27;3.17;;;2.20;;
21334;SDS011;69435;52.670;13.544;2023-05-16T11:20:23;2.93;;;1.83;;
21334;SDS011;69435;52.670;13.544;2023-05-16T11:23:23;2.47;;;1.90;;
21334;SDS011;69435;52.670;13.544;2023-05-16T11:26:10;5.77;;;1.73;;
21334;SDS011;69435;52.670;13.544;2023-05-16T11:28:58;4.17;;;2.20;;
21334;SDS011;69435;52.670;13.544;2023-05-16T11:31:47;4.20;;;2.27;;
21334;SDS011;69435;52.670;13.544;2023-05-16T11:34:34;4.53;;;1.93;;
21334;SDS011;69435;52.670;13.544;2023-05-16T11:37:24;3.67;;;2.30;;
21334;SDS011;69435;52.670;13.544;2023-05-16T11:40:10;6.97;;;2.60;;
21334;SDS011;69435;52.670;13.544;2023-05-16T11:42:59;12.13;;;2.67;;
21334;SDS011;69435;52.670;13.544;2023-05-16T11:45:53;8.20;;;2.97;;
21334;SDS011;69435;52.670;13.544;2023-05-16T11:48:40;15.50;;;2.27;;
21334;SDS011;69435;52.670;13.544;2023-05-16T11:51:26;8.13;;;2.07;;
21334;SDS011;69435;52.670;13.544;2023-05-16T11:54:13;6.53;;;2.50;;
21334;SDS011;69435;52.670;13.544;2023-05-16T11:56:59;9.30;;;2.33;;
21334;SDS011;69435;52.670;13.544;2023-05-16T11:59:46;8.47;;;2.40;;
21334;SDS011;69435;52.670;13.544;2023-05-16T12:02:34;6.17;;;3.00;;
21334;SDS011;69435;52.670;13.544;2023-05-16T12:05:21;9.07;;;2.37;;
21334;SDS011;69435;52.670;13.544;2023-05-16T12:08:10;5.03;;;1.87;;
21334;SDS011;69435;52.670;13.544;2023-05-16T12:10:56;8.63;;;2.13;;
21334;SDS011;69435;52.670;13.544;2023-05-16T12:13:42;6.83;;;2.33;;
21334;SDS011;69435;52.670;13.544;2023-05-16T12:16:29;9.57;;;2.07;;
21334;SDS011;69435;52.670;13.544;2023-05-16T12:19:17;5.33;;;2.00;;
21334;SDS011;69435;52.670;13.544;2023-05-16T12:22:04;6.43;;;2.80;;
21334;SDS011;69435;52.670;13.544;2023-05-16T12:28:16;7.03;;;2.47;;
21334;SDS011;69435;52.670;13.544;2023-05-16T12:31:02;4.93;;;1.90;;
21334;SDS011;69435;52.670;13.544;2023-05-16T12:33:51;4.27;;;1.60;;
21334;SDS011;69435;52.670;13.544;2023-05-16T12:36:39;6.03;;;2.63;;
21334;SDS011;69435;52.670;13.544;2023-05-16T12:39:27;4.13;;;2.40;;
21334;SDS011;69435;52.670;13.544;2023-05-16T12:42:23;7.87;;;2.47;;
21334;SDS011;69435;52.670;13.544;2023-05-16T12:45:15;5.87;;;1.97;;
21334;SDS011;69435;52.670;13.544;2023-05-16T12:48:05;7.03;;;2.13;;
21334;SDS011;69435;52.670;13.544;2023-05-16T12:51:20;6.60;;;2.10;;
21334;SDS011;69435;52.670;13.544;2023-05-16T12:54:07;7.63;;;2.47;;
21334;SDS011;69435;52.670;13.544;2023-05-16T12:56:57;4.10;;;1.63;;
21334;SDS011;69435;52.670;13.544;2023-05-16T12:59:43;4.93;;;1.70;;
21334;SDS011;69435;52.670;13.544;2023-05-16T13:02:29;4.80;;;2.20;;
21334;SDS011;69435;52.670;13.544;2023-05-16T13:05:15;9.60;;;2.43;;
21334;SDS011;69435;52.670;13.544;2023-05-16T13:08:02;9.63;;;2.33;;
21334;SDS011;69435;52.670;13.544;2023-05-16T13:10:52;6.33;;;1.63;;
21334;SDS011;69435;52.670;13.544;2023-05-16T13:13:38;6.53;;;1.87;;
21334;SDS011;69435;52.670;13.544;2023-05-16T13:16:24;7.13;;;2.07;;
21334;SDS011;69435;52.670;13.544;2023-05-16T13:19:10;3.53;;;1.70;;
21334;SDS011;69435;52.670;13.544;2023-05-16T13:21:58;3.47;;;1.60;;
21334;SDS011;69435;52.670;13.544;2023-05-16T13:24:44;5.27;;;1.77;;
21334;SDS011;69435;52.670;13.544;2023-05-16T13:27:30;4.60;;;1.80;;
21334;SDS011;69435;52.670;13.544;2023-05-16T13:30:18;5.53;;;1.70;;
21334;SDS011;69435;52.670;13.544;2023-05-16T13:33:04;7.93;;;1.93;;
21334;SDS011;69435;52.670;13.544;2023-05-16T13:35:51;6.73;;;2.43;;
21334;SDS011;69435;52.670;13.544;2023-05-16T13:38:38;3.60;;;1.80;;
21334;SDS011;69435;52.670;13.544;2023-05-16T13:41:24;10.97;;;2.00;;
21334;SDS011;69435;52.670;13.544;2023-05-16T13:44:11;3.43;;;1.80;;
21334;SDS011;69435;52.670;13.544;2023-05-16T13:46:58;6.03;;;2.10;;
21334;SDS011;69435;52.670;13.544;2023-05-16T13:49:44;7.07;;;1.90;;
21334;SDS011;69435;52.670;13.544;2023-05-16T13:52:30;6.40;;;1.60;;
21334;SDS011;69435;52.670;13.544;2023-05-16T13:55:16;5.83;;;2.03;;
21334;SDS011;69435;52.670;13.544;2023-05-16T13:58:02;4.17;;;1.70;;
21334;SDS011;69435;52.670;13.544;2023-05-16T14:00:49;5.07;;;1.70;;
21334;SDS011;69435;52.670;13.544;2023-05-16T14:03:35;3.23;;;1.33;;
21334;SDS011;69435;52.670;13.544;2023-05-16T14:06:21;6.43;;;1.70;;
21334;SDS011;69435;52.670;13.544;2023-05-16T14:09:07;7.73;;;2.17;;
21334;SDS011;69435;52.670;13.544;2023-05-16T14:11:53;3.43;;;1.80;;
21334;SDS011;69435;52.670;13.544;2023-05-16T14:14:40;5.90;;;2.07;;
21334;SDS011;69435;52.670;13.544;2023-05-16T14:17:26;7.43;;;1.90;;
21334;SDS011;69435;52.670;13.544;2023-05-16T14:20:12;6.77;;;1.80;;
21334;SDS011;69435;52.670;13.544;2023-05-16T14:22:58;3.23;;;1.50;;
21334;SDS011;69435;52.670;13.544;2023-05-16T14:25:44;6.13;;;1.50;;
21334;SDS011;69435;52.670;13.544;2023-05-16T14:28:31;9.90;;;2.13;;
21334;SDS011;69435;52.670;13.544;2023-05-16T14:31:17;6.63;;;1.60;;
21334;SDS011;69435;52.670;13.544;2023-05-16T14:34:03;5.47;;;1.43;;
21334;SDS011;69435;52.670;13.544;2023-05-16T14:36:49;2.97;;;1.70;;
21334;SDS011;69435;52.670;13.544;2023-05-16T14:39:35;4.60;;;1.80;;
21334;SDS011;69435;52.670;13.544;2023-05-16T14:42:23;7.47;;;1.83;;
21334;SDS011;69435;52.670;13.544;2023-05-16T14:45:09;4.10;;;1.20;;
21334;SDS011;69435;52.670;13.544;2023-05-16T14:47:55;5.40;;;1.70;;
21334;SDS011;69435;52.670;13.544;2023-05-16T14:50:41;9.20;;;1.60;;
21334;SDS011;69435;52.670;13.544;2023-05-16T14:53:29;6.40;;;1.60;;
21334;SDS011;69435;52.670;13.544;2023-05-16T14:56:15;2.97;;;1.03;;
21334;SDS011;69435;52.670;13.544;2023-05-16T14:59:01;4.83;;;1.30;;
21334;SDS011;69435;52.670;13.544;2023-05-16T15:01:47;7.00;;;2.97;;
21334;SDS011;69435;52.670;13.544;2023-05-16T15:04:33;3.37;;;1.33;;
21334;SDS011;69435;52.670;13.544;2023-05-16T15:07:20;7.07;;;1.80;;
21334;SDS011;69435;52.670;13.544;2023-05-16T15:10:06;1.87;;;1.30;;
21334;SDS011;69435;52.670;13.544;2023-05-16T15:12:54;1.97;;;1.20;;
21334;SDS011;69435;52.670;13.544;2023-05-16T15:15:42;4.00;;;1.60;;
21334;SDS011;69435;52.670;13.544;2023-05-16T15:18:28;3.93;;;1.97;;
21334;SDS011;69435;52.670;13.544;2023-05-16T15:21:15;2.57;;;1.13;;
21334;SDS011;69435;52.670;13.544;2023-05-16T15:24:01;2.57;;;1.10;;
21334;SDS011;69435;52.670;13.544;2023-05-16T15:26:48;2.67;;;1.57;;
21334;SDS011;69435;52.670;13.544;2023-05-16T15:29:35;3.33;;;1.53;;
21334;SDS011;69435;52.670;13.544;2023-05-16T15:32:21;5.23;;;1.50;;
21334;SDS011;69435;52.670;13.544;2023-05-16T15:35:08;4.80;;;1.60;;
21334;SDS011;69435;52.670;13.544;2023-05-16T15:37:54;5.73;;;1.67;;
21334;SDS011;69435;52.670;13.544;2023-05-16T15:40:41;5.53;;;1.73;;
21334;SDS011;69435;52.670;13.544;2023-05-16T15:43:29;3.73;;;1.83;;
21334;SDS011;69435;52.670;13.544;2023-05-16T15:46:16;2.83;;;1.43;;
21334;SDS011;69435;52.670;13.544;2023-05-16T15:49:03;7.80;;;1.50;;
21334;SDS011;69435;52.670;13.544;2023-05-16T15:51:52;3.07;;;1.50;;
21334;SDS011;69435;52.670;13.544;2023-05-16T15:54:40;8.33;;;1.53;;
21334;SDS011;69435;52.670;13.544;2023-05-16T15:57:26;6.23;;;1.43;;
21334;SDS011;69435;52.670;13.544;2023-05-16T16:00:12;2.27;;;1.20;;
21334;SDS011;69435;52.670;13.544;2023-05-16T16:03:00;2.83;;;0.87;;
21334;SDS011;69435;52.670;13.544;2023-05-16T16:05:46;3.03;;;1.20;;
21334;SDS011;69435;52.670;13.544;2023-05-16T16:08:32;4.63;;;1.40;;
21334;SDS011;69435;52.670;13.544;2023-05-16T16:11:19;4.83;;;1.30;;
21334;SDS011;69435;52.670;13.544;2023-05-16T16:14:07;3.83;;;1.60;;
21334;SDS011;69435;52.670;13.544;2023-05-16T16:16:55;5.17;;;1.47;;
21334;SDS011;69435;52.670;13.544;2023-05-16T16:19:41;4.50;;;2.07;;
21334;SDS011;69435;52.670;13.544;2023-05-16T16:22:28;4.33;;;1.60;;
21334;SDS011;69435;52.670;13.544;2023-05-16T16:25:14;3.83;;;1.20;;
21334;SDS011;69435;52.670;13.544;2023-05-16T16:28:01;3.20;;;0.90;;
21334;SDS011;69435;52.670;13.544;2023-05-16T16:30:47;5.70;;;1.17;;
21334;SDS011;69435;52.670;13.544;2023-05-16T16:33:34;2.97;;;1.33;;
21334;SDS011;69435;52.670;13.544;2023-05-16T16:36:21;4.07;;;1.57;;
21334;SDS011;69435;52.670;13.544;2023-05-16T16:39:07;2.20;;;1.13;;
21334;SDS011;69435;52.670;13.544;2023-05-16T16:41:54;4.80;;;1.13;;